createdAt,value
2023-12-19T00:01:50.248Z,15.52
2023-12-19T00:04:19.627Z,13.65
2023-12-19T00:06:49.115Z,12.73
2023-12-19T00:09:18.411Z,13.73
2023-12-19T00:11:47.687Z,19.65
2023-12-19T00:14:16.973Z,16.52
2023-12-19T00:16:46.188Z,19.17
2023-12-19T00:19:15.516Z,15.38
2023-12-19T00:21:44.797Z,15.15
2023-12-19T00:24:15.024Z,13.75
2023-12-19T00:26:44.205Z,13.48
2023-12-19T00:29:13.467Z,14.18
2023-12-19T00:31:42.822Z,16.50
2023-12-19T00:34:12.206Z,15.43
2023-12-19T00:36:41.887Z,16.42
2023-12-19T00:39:11.456Z,16.83
2023-12-19T00:41:40.800Z,16.42
2023-12-19T00:44:10.063Z,13.10
2023-12-19T00:46:39.321Z,13.77
2023-12-19T00:49:08.610Z,13.70
2023-12-19T00:51:38.005Z,17.10
2023-12-19T00:54:07.623Z,13.45
2023-12-19T00:56:36.912Z,10.43
2023-12-19T00:59:06.258Z,9.10
2023-12-19T01:01:35.453Z,6.70
2023-12-19T01:04:06.189Z,5.07
2023-12-19T01:06:35.522Z,3.92
2023-12-19T01:09:06.411Z,4.13
2023-12-19T01:11:35.778Z,4.22
2023-12-19T01:14:05.246Z,4.40
2023-12-19T01:16:34.603Z,5.25
2023-12-19T01:19:05.286Z,4.30
2023-12-19T01:21:34.619Z,4.40
2023-12-19T01:24:03.884Z,4.85
2023-12-19T01:26:35.316Z,3.95
2023-12-19T01:29:05.124Z,4.65
2023-12-19T01:31:34.752Z,4.60
2023-12-19T01:34:04.143Z,4.88
2023-12-19T01:36:33.867Z,3.75
2023-12-19T01:39:03.114Z,3.22
2023-12-19T01:41:32.599Z,3.33
2023-12-19T01:44:02.824Z,3.10
2023-12-19T01:46:32.225Z,2.38
2023-12-19T01:49:03.009Z,3.28
2023-12-19T01:51:33.586Z,4.05
2023-12-19T01:54:06.938Z,7.43
2023-12-19T01:56:37.250Z,7.10
2023-12-19T01:59:08.519Z,3.72
2023-12-19T02:01:38.243Z,4.47
2023-12-19T02:04:09.005Z,3.80
2023-12-19T02:06:38.646Z,5.13
2023-12-19T02:09:09.536Z,3.92
2023-12-19T02:11:39.007Z,3.28
2023-12-19T02:14:08.404Z,3.80
2023-12-19T02:16:37.635Z,3.30
2023-12-19T02:19:08.505Z,2.60
2023-12-19T02:21:39.854Z,2.83
2023-12-19T02:24:09.353Z,2.70
2023-12-19T02:26:40.747Z,3.30
2023-12-19T02:29:09.977Z,2.08
2023-12-19T02:31:39.392Z,1.92
2023-12-19T02:34:08.620Z,2.03
2023-12-19T02:36:39.186Z,1.58
2023-12-19T02:39:08.414Z,1.45
2023-12-19T02:41:37.606Z,1.95
2023-12-19T02:44:06.993Z,1.65
2023-12-19T02:46:36.635Z,1.27
2023-12-19T02:49:06.041Z,2.15
2023-12-19T02:51:35.292Z,1.38
2023-12-19T02:54:04.523Z,2.17
2023-12-19T02:56:36.367Z,1.45
2023-12-19T02:59:05.998Z,2.22
2023-12-19T03:01:35.464Z,1.38
2023-12-19T03:04:04.948Z,1.52
2023-12-19T03:06:34.242Z,2.25
2023-12-19T03:09:03.752Z,2.53
2023-12-19T03:11:32.942Z,4.68
2023-12-19T03:14:02.137Z,3.95
2023-12-19T03:16:31.378Z,3.53
2023-12-19T03:19:00.669Z,3.75
2023-12-19T03:21:30.184Z,3.60
2023-12-19T03:23:59.515Z,2.20
2023-12-19T03:26:28.753Z,2.35
2023-12-19T03:28:57.981Z,1.75
2023-12-19T03:31:27.283Z,2.17
2023-12-19T03:33:56.732Z,1.52
2023-12-19T03:36:26.153Z,1.88
2023-12-19T03:38:55.383Z,3.22
2023-12-19T03:41:24.907Z,2.35
2023-12-19T03:43:54.176Z,4.90
2023-12-19T03:46:23.459Z,2.83
2023-12-19T03:48:52.697Z,3.42
2023-12-19T03:51:22.078Z,2.60
2023-12-19T03:53:51.532Z,6.00
2023-12-19T03:56:20.755Z,4.00
2023-12-19T03:58:50.002Z,6.55
2023-12-19T04:01:20.842Z,4.90
2023-12-19T04:03:50.182Z,3.67
2023-12-19T04:06:19.538Z,3.28
2023-12-19T04:08:48.789Z,2.95
2023-12-19T04:11:18.108Z,2.28
2023-12-19T04:13:47.337Z,2.53
2023-12-19T04:16:19.567Z,2.05
2023-12-19T04:18:48.880Z,2.28
2023-12-19T04:21:18.234Z,2.42
2023-12-19T04:23:47.520Z,1.95
2023-12-19T04:26:23.096Z,1.60
2023-12-19T04:28:52.417Z,1.17
2023-12-19T04:31:21.708Z,1.73
2023-12-19T04:33:51.122Z,2.15
2023-12-19T04:36:21.062Z,1.67
2023-12-19T04:38:50.280Z,1.95
2023-12-19T04:41:19.555Z,1.75
2023-12-19T04:43:48.799Z,1.90
2023-12-19T04:46:18.505Z,1.40
2023-12-19T04:48:48.740Z,1.52
2023-12-19T04:51:24.972Z,1.80
2023-12-19T04:53:55.449Z,2.45
2023-12-19T04:56:24.865Z,2.88
2023-12-19T04:58:54.206Z,2.80
2023-12-19T05:01:23.508Z,4.28
2023-12-19T05:03:52.785Z,3.08
2023-12-19T05:06:22.024Z,3.40
2023-12-19T05:08:51.472Z,1.88
2023-12-19T05:11:20.702Z,2.15
2023-12-19T05:13:49.883Z,2.28
2023-12-19T05:16:21.304Z,1.60
2023-12-19T05:18:50.671Z,1.25
2023-12-19T05:21:23.058Z,1.67
2023-12-19T05:23:52.395Z,2.30
2023-12-19T05:26:21.610Z,2.28
2023-12-19T05:28:50.950Z,2.35
2023-12-19T05:31:21.335Z,2.63
2023-12-19T05:33:50.615Z,2.35
2023-12-19T05:36:20.065Z,2.90
2023-12-19T05:38:49.295Z,2.40
2023-12-19T05:41:18.781Z,2.83
2023-12-19T05:43:48.065Z,2.38
2023-12-19T05:46:17.355Z,2.55
2023-12-19T05:48:46.661Z,4.00
2023-12-19T05:51:17.282Z,3.50
2023-12-19T05:53:46.502Z,3.15
2023-12-19T05:56:16.043Z,3.70
2023-12-19T05:58:46.896Z,2.33
2023-12-19T06:01:16.498Z,3.10
2023-12-19T06:03:45.825Z,2.70
2023-12-19T06:06:18.744Z,5.93
2023-12-19T06:08:48.108Z,2.80
2023-12-19T06:11:28.468Z,2.22
2023-12-19T06:13:57.705Z,2.53
2023-12-19T06:16:26.975Z,2.50
2023-12-19T06:18:56.229Z,2.13
2023-12-19T06:21:25.944Z,1.90
2023-12-19T06:23:55.301Z,2.30
2023-12-19T06:26:24.826Z,3.20
2023-12-19T06:28:54.058Z,3.20
2023-12-19T06:31:24.485Z,2.38
2023-12-19T06:33:53.825Z,2.53
2023-12-19T06:36:33.601Z,2.70
2023-12-19T06:39:03.150Z,2.70
2023-12-19T06:41:32.535Z,1.60
2023-12-19T06:44:01.734Z,1.30
2023-12-19T06:46:30.901Z,1.25
2023-12-19T06:49:00.185Z,1.00
2023-12-19T06:51:30.317Z,5.30
2023-12-19T06:53:59.782Z,1.33
2023-12-19T06:56:30.448Z,1.98
2023-12-19T06:58:59.804Z,2.08
2023-12-19T07:01:29.250Z,1.63
2023-12-19T07:03:58.885Z,1.95
2023-12-19T07:06:28.227Z,1.48
2023-12-19T07:08:57.742Z,1.67
2023-12-19T07:11:30.963Z,2.78
2023-12-19T07:14:00.172Z,3.38
2023-12-19T07:16:29.352Z,2.33
2023-12-19T07:18:58.699Z,2.38
2023-12-19T07:21:28.530Z,1.08
2023-12-19T07:23:57.965Z,1.38
2023-12-19T07:26:30.577Z,2.10
2023-12-19T07:29:01.320Z,1.92
2023-12-19T07:31:35.869Z,2.72
2023-12-19T07:34:08.026Z,2.10
2023-12-19T07:36:37.944Z,1.55
2023-12-19T07:39:07.212Z,1.50
2023-12-19T07:41:36.464Z,1.40
2023-12-19T07:44:11.409Z,1.42
2023-12-19T07:46:44.642Z,1.17
2023-12-19T07:49:14.371Z,3.63
2023-12-19T07:51:43.722Z,1.05
2023-12-19T07:54:12.907Z,5.40
2023-12-19T07:56:45.488Z,0.80
2023-12-19T07:59:16.097Z,0.90
2023-12-19T08:01:53.484Z,1.52
2023-12-19T08:04:22.747Z,0.80
2023-12-19T08:06:52.022Z,1.55
2023-12-19T08:09:21.272Z,1.67
2023-12-19T08:11:51.367Z,1.02
2023-12-19T08:14:20.531Z,1.63
2023-12-19T08:16:50.570Z,1.02
2023-12-19T08:19:20.051Z,1.80
2023-12-19T08:21:57.269Z,1.55
2023-12-19T08:24:28.071Z,1.40
2023-12-19T08:26:57.353Z,1.42
2023-12-19T08:29:26.569Z,1.40
2023-12-19T08:31:55.922Z,1.73
2023-12-19T08:34:25.323Z,1.70
2023-12-19T08:36:54.708Z,2.28
2023-12-19T08:39:23.956Z,1.67
2023-12-19T08:41:53.217Z,0.70
2023-12-19T08:44:22.453Z,1.00
2023-12-19T08:46:51.690Z,1.88
2023-12-19T08:49:21.017Z,1.58
2023-12-19T08:51:53.251Z,1.92
2023-12-19T08:54:22.490Z,1.95
2023-12-19T08:56:51.671Z,1.35
2023-12-19T08:59:20.911Z,1.08
2023-12-19T09:01:50.318Z,1.27
2023-12-19T09:04:19.746Z,2.80
2023-12-19T09:06:49.639Z,1.77
2023-12-19T09:09:19.353Z,1.88
2023-12-19T09:11:48.570Z,1.95
2023-12-19T09:14:19.316Z,1.70
2023-12-19T09:16:48.588Z,2.08
2023-12-19T09:19:19.398Z,2.83
2023-12-19T09:21:48.714Z,2.55
2023-12-19T09:24:18.040Z,2.72
2023-12-19T09:26:47.296Z,38.65
2023-12-19T09:29:16.725Z,2.75
2023-12-19T09:31:49.827Z,1.95
2023-12-19T09:34:19.126Z,4.32
2023-12-19T09:36:56.044Z,2.53
2023-12-19T09:41:56.083Z,1.10
2023-12-19T09:44:26.906Z,0.88
2023-12-19T09:46:56.718Z,1.35
2023-12-19T09:49:31.094Z,2.72
2023-12-19T09:52:02.177Z,2.33
2023-12-19T09:54:31.824Z,2.13
2023-12-19T09:57:01.918Z,3.05
2023-12-19T09:59:31.999Z,1.92
2023-12-19T10:02:01.349Z,3.00
2023-12-19T10:04:30.783Z,2.08
2023-12-19T10:07:01.191Z,2.28
2023-12-19T10:09:30.762Z,2.47
2023-12-19T10:12:14.569Z,2.10
2023-12-19T10:14:43.757Z,3.58
2023-12-19T10:17:19.825Z,2.55
2023-12-19T10:19:49.231Z,2.03
2023-12-19T10:22:23.130Z,2.17
2023-12-19T10:25:02.904Z,2.78
2023-12-19T10:27:32.350Z,1.88
2023-12-19T10:30:20.647Z,2.33
2023-12-19T10:32:50.091Z,2.15
2023-12-19T10:35:19.797Z,2.17
2023-12-19T10:37:49.461Z,2.63
2023-12-19T10:40:22.009Z,3.25
2023-12-19T10:43:04.959Z,2.47
2023-12-19T10:45:35.350Z,3.15
2023-12-19T10:48:05.331Z,4.53
2023-12-19T10:50:34.855Z,4.22
2023-12-19T10:53:08.071Z,4.97
2023-12-19T10:55:49.278Z,7.72
2023-12-19T10:58:24.746Z,6.43
2023-12-19T11:00:56.926Z,7.20
2023-12-19T11:03:39.989Z,9.98
2023-12-19T11:06:15.719Z,9.90
2023-12-19T11:08:51.741Z,10.77
2023-12-19T11:11:40.617Z,11.60
2023-12-19T11:14:09.900Z,11.30
2023-12-19T11:17:29.777Z,10.57
2023-12-19T11:20:08.503Z,9.02
2023-12-19T11:23:12.147Z,10.48
2023-12-19T11:25:51.521Z,11.30
2023-12-19T11:28:21.406Z,10.60
2023-12-19T11:30:50.689Z,11.20
2023-12-19T11:33:33.316Z,10.65
2023-12-19T11:36:17.205Z,12.00
2023-12-19T11:38:47.919Z,11.90
2023-12-19T11:41:40.137Z,12.50
2023-12-19T11:44:09.906Z,13.20
2023-12-19T11:46:39.045Z,12.77
2023-12-19T11:49:09.326Z,13.63
2023-12-19T11:51:49.061Z,14.80
2023-12-19T11:54:18.778Z,16.88
2023-12-19T11:57:01.038Z,18.30
2023-12-19T11:59:56.458Z,19.48
2023-12-19T12:02:39.557Z,19.73
2023-12-19T12:05:09.648Z,21.58
2023-12-19T12:07:50.635Z,21.60
2023-12-19T12:10:24.338Z,20.05
2023-12-19T12:12:54.775Z,18.98
2023-12-19T12:15:26.566Z,17.73
2023-12-19T12:18:09.521Z,17.02
2023-12-19T12:20:39.046Z,18.13
2023-12-19T12:23:08.373Z,17.35
2023-12-19T12:25:37.686Z,16.58
2023-12-19T12:28:16.783Z,17.00
2023-12-19T12:30:46.652Z,19.65
2023-12-19T12:33:16.038Z,18.88
2023-12-19T12:35:45.403Z,20.23
2023-12-19T12:38:21.018Z,23.58
2023-12-19T12:41:03.522Z,25.85
2023-12-19T12:43:41.974Z,27.13
2023-12-19T12:46:15.684Z,27.05
2023-12-19T12:49:08.248Z,27.05
2023-12-19T12:51:39.194Z,26.50
2023-12-19T12:54:08.565Z,24.88
2023-12-19T12:56:42.624Z,24.55
2023-12-19T12:59:16.961Z,24.13
2023-12-19T13:01:51.758Z,24.38
2023-12-19T13:04:21.700Z,25.73
2023-12-19T13:06:52.348Z,26.00
2023-12-19T13:09:24.436Z,25.27
2023-12-19T13:11:55.261Z,24.90
2023-12-19T13:14:25.627Z,25.58
2023-12-19T13:16:54.818Z,26.60
2023-12-19T13:19:25.046Z,26.02
2023-12-19T13:21:54.717Z,27.02
2023-12-19T13:24:24.232Z,26.38
2023-12-19T13:26:53.603Z,25.33
2023-12-19T13:29:22.961Z,24.48
2023-12-19T13:31:52.196Z,24.27
2023-12-19T13:34:21.525Z,21.95
2023-12-19T13:36:50.940Z,26.33
2023-12-19T13:39:22.292Z,20.70
2023-12-19T13:41:53.593Z,20.65
2023-12-19T13:44:23.237Z,20.02
2023-12-19T13:46:52.633Z,19.02
2023-12-19T13:49:22.003Z,17.05
2023-12-19T13:51:51.560Z,17.30
2023-12-19T13:54:22.829Z,15.85
2023-12-19T13:56:52.122Z,15.30
2023-12-19T13:59:21.359Z,14.10
2023-12-19T14:01:50.725Z,13.15
2023-12-19T14:04:22.902Z,12.68
2023-12-19T14:06:52.378Z,11.48
2023-12-19T14:09:21.600Z,10.45
2023-12-19T14:11:53.620Z,9.93
2023-12-19T14:14:22.781Z,11.20
2023-12-19T14:16:52.026Z,8.88
2023-12-19T14:19:21.476Z,7.90
2023-12-19T14:21:52.285Z,7.03
2023-12-19T14:24:21.814Z,7.32
2023-12-19T14:26:50.973Z,5.63
2023-12-19T14:29:20.223Z,5.93
2023-12-19T14:31:49.945Z,4.70
2023-12-19T14:34:19.411Z,5.15
2023-12-19T14:36:49.308Z,5.85
2023-12-19T14:39:18.596Z,4.28
2023-12-19T14:41:47.858Z,4.30
2023-12-19T14:44:17.201Z,3.45
2023-12-19T14:46:46.421Z,3.60
2023-12-19T14:49:15.998Z,3.30
2023-12-19T14:51:45.749Z,3.65
2023-12-19T14:54:15.002Z,2.70
2023-12-19T14:56:45.247Z,2.60
2023-12-19T14:59:15.115Z,2.65
2023-12-19T15:01:47.788Z,2.60
2023-12-19T15:04:17.224Z,2.80
2023-12-19T15:06:46.653Z,3.10
2023-12-19T15:09:15.934Z,3.40
2023-12-19T15:11:45.222Z,3.53
2023-12-19T15:14:15.831Z,2.63
2023-12-19T15:16:46.080Z,2.40
2023-12-19T15:19:15.392Z,3.95
2023-12-19T15:21:44.781Z,2.58
2023-12-19T15:24:14.519Z,3.17
2023-12-19T15:26:45.348Z,3.17
2023-12-19T15:29:16.888Z,2.42
2023-12-19T15:31:48.390Z,2.78
2023-12-19T15:34:18.485Z,3.50
2023-12-19T15:36:47.950Z,3.00
2023-12-19T15:39:18.247Z,2.78
2023-12-19T15:41:47.471Z,2.72
2023-12-19T15:44:17.020Z,2.55
2023-12-19T15:46:46.238Z,2.15
2023-12-19T15:49:15.832Z,2.65
2023-12-19T15:51:45.240Z,3.25
2023-12-19T15:54:14.534Z,2.17
2023-12-19T15:56:44.862Z,2.88
2023-12-19T15:59:14.571Z,1.75
2023-12-19T16:01:44.852Z,2.78
2023-12-19T16:04:14.225Z,2.35
2023-12-19T16:06:44.455Z,2.40
2023-12-19T16:09:13.871Z,1.67
2023-12-19T16:11:43.095Z,1.70
2023-12-19T16:14:12.349Z,2.30
2023-12-19T16:16:41.535Z,1.90
2023-12-19T16:19:12.034Z,1.30
2023-12-19T16:21:47.530Z,1.90
2023-12-19T16:24:19.224Z,1.65
2023-12-19T16:26:48.453Z,1.50
2023-12-19T16:29:21.231Z,1.83
2023-12-19T16:31:55.194Z,2.00
2023-12-19T16:34:26.742Z,1.90
2023-12-19T16:36:56.381Z,2.03
2023-12-19T16:39:25.920Z,1.67
2023-12-19T16:41:55.155Z,1.27
2023-12-19T16:44:24.411Z,1.58
2023-12-19T16:46:53.580Z,1.70
2023-12-19T16:49:22.928Z,1.90
2023-12-19T16:51:52.532Z,2.60
2023-12-19T16:54:22.160Z,3.80
2023-12-19T16:56:51.448Z,1.90
2023-12-19T16:59:22.540Z,1.33
2023-12-19T17:01:51.865Z,1.65
2023-12-19T17:04:21.243Z,2.03
2023-12-19T17:06:54.596Z,2.17
2023-12-19T17:09:24.632Z,1.85
2023-12-19T17:11:54.185Z,1.95
2023-12-19T17:14:23.446Z,2.65
2023-12-19T17:16:52.618Z,1.98
2023-12-19T17:19:21.895Z,2.40
2023-12-19T17:21:51.370Z,2.05
2023-12-19T17:24:26.899Z,1.73
2023-12-19T17:27:02.136Z,1.67
2023-12-19T17:29:31.276Z,2.50
2023-12-19T17:32:00.538Z,1.77
2023-12-19T17:34:29.898Z,2.35
2023-12-19T17:36:59.346Z,1.80
2023-12-19T17:39:31.807Z,1.98
2023-12-19T17:42:01.048Z,2.45
2023-12-19T17:44:30.256Z,2.35
2023-12-19T17:46:59.536Z,1.70
2023-12-19T17:49:28.795Z,2.53
2023-12-19T17:51:58.504Z,4.88
2023-12-19T17:54:27.739Z,2.28
2023-12-19T17:57:01.356Z,2.20
2023-12-19T17:59:32.084Z,1.88
2023-12-19T18:02:02.323Z,2.85
2023-12-19T18:04:32.783Z,1.80
2023-12-19T18:07:02.086Z,2.30
2023-12-19T18:09:31.710Z,2.88
2023-12-19T18:12:01.062Z,2.13
2023-12-19T18:14:30.879Z,2.28
2023-12-19T18:17:05.070Z,2.00
2023-12-19T18:19:34.863Z,2.20
2023-12-19T18:22:04.409Z,1.95
2023-12-19T18:24:33.727Z,2.28
2023-12-19T18:27:06.187Z,2.22
2023-12-19T18:29:35.452Z,2.30
2023-12-19T18:32:04.999Z,1.70
2023-12-19T18:34:34.445Z,1.92
2023-12-19T18:37:03.828Z,2.08
2023-12-19T18:39:33.132Z,1.80
2023-12-19T18:42:02.378Z,2.60
2023-12-19T18:44:31.793Z,1.65
2023-12-19T18:47:00.976Z,1.83
2023-12-19T18:49:30.247Z,2.22
2023-12-19T18:52:00.857Z,2.83
2023-12-19T18:54:30.079Z,1.95
2023-12-19T18:56:59.340Z,1.73
2023-12-19T18:59:28.539Z,1.73
2023-12-19T19:01:57.887Z,2.65
2023-12-19T19:04:27.287Z,2.13
2023-12-19T19:06:57.559Z,2.72
2023-12-19T19:09:26.818Z,1.52
2023-12-19T19:11:56.217Z,1.80
2023-12-19T19:14:25.497Z,1.42
2023-12-19T19:16:54.682Z,1.85
2023-12-19T19:19:25.032Z,1.77
2023-12-19T19:21:55.036Z,1.65
2023-12-19T19:24:24.255Z,2.13
2023-12-19T19:26:53.626Z,1.77
2023-12-19T19:29:23.824Z,1.80
2023-12-19T19:31:53.511Z,1.60
2023-12-19T19:34:22.976Z,1.35
2023-12-19T19:36:53.681Z,1.33
2023-12-19T19:39:24.373Z,2.20
2023-12-19T19:41:54.191Z,3.05
2023-12-19T19:44:23.466Z,1.88
2023-12-19T19:46:52.689Z,1.80
2023-12-19T19:49:22.435Z,1.23
2023-12-19T19:51:52.267Z,1.20
2023-12-19T19:54:24.734Z,1.20
2023-12-19T19:56:53.950Z,1.35
2023-12-19T19:59:26.366Z,1.45
2023-12-19T20:01:55.660Z,1.58
2023-12-19T20:04:25.033Z,1.63
2023-12-19T20:06:54.426Z,1.50
2023-12-19T20:09:24.057Z,1.08
2023-12-19T20:11:53.383Z,2.25
2023-12-19T20:14:22.955Z,1.33
2023-12-19T20:16:52.331Z,1.27
2023-12-19T20:19:21.614Z,2.17
2023-12-19T20:21:50.920Z,1.95
2023-12-19T20:24:20.333Z,1.92
2023-12-19T20:26:50.300Z,1.33
2023-12-19T20:29:21.552Z,1.60
2023-12-19T20:31:50.773Z,1.65
2023-12-19T20:34:20.211Z,1.63
2023-12-19T20:36:49.641Z,1.48
2023-12-19T20:39:18.812Z,1.08
2023-12-19T20:41:49.056Z,1.50
2023-12-19T20:44:18.460Z,1.13
2023-12-19T20:46:48.244Z,1.25
2023-12-19T20:49:17.839Z,1.48
2023-12-19T20:51:47.450Z,1.35
2023-12-19T20:54:20.868Z,1.35
2023-12-19T20:56:50.587Z,1.13
2023-12-19T20:59:20.317Z,1.50
2023-12-19T21:01:49.807Z,1.40
2023-12-19T21:04:19.394Z,1.38
2023-12-19T21:06:48.791Z,1.35
2023-12-19T21:09:17.974Z,1.30
2023-12-19T21:11:47.219Z,1.08
2023-12-19T21:14:16.684Z,1.73
2023-12-19T21:16:58.381Z,1.08
2023-12-19T21:19:35.293Z,1.58
2023-12-19T21:22:07.057Z,2.00
2023-12-19T21:24:37.700Z,1.52
2023-12-19T21:27:07.818Z,1.92
2023-12-19T21:29:37.182Z,1.40
2023-12-19T21:32:06.882Z,1.50
2023-12-19T21:34:38.567Z,3.60
2023-12-19T21:37:07.887Z,4.05
2023-12-19T21:39:37.360Z,5.55
2023-12-19T21:42:07.103Z,8.68
2023-12-19T21:44:36.378Z,10.00
2023-12-19T21:47:05.725Z,9.27
2023-12-19T21:49:39.223Z,9.82
2023-12-19T21:52:09.249Z,10.88
2023-12-19T21:54:40.921Z,10.65
2023-12-19T21:57:10.186Z,9.75
2023-12-19T21:59:39.371Z,9.57
2023-12-19T22:02:09.157Z,9.13
2023-12-19T22:04:38.565Z,8.35
2023-12-19T22:07:07.865Z,8.38
2023-12-19T22:09:40.918Z,6.30
2023-12-19T22:12:12.686Z,5.25
2023-12-19T22:14:42.170Z,6.10
2023-12-19T22:17:11.479Z,4.00
2023-12-19T22:19:41.066Z,3.83
2023-12-19T22:22:12.789Z,3.45
2023-12-19T22:24:43.068Z,3.10
2023-12-19T22:27:14.784Z,3.60
2023-12-19T22:29:49.488Z,3.53
2023-12-19T22:32:18.927Z,3.53
2023-12-19T22:34:57.211Z,2.90
2023-12-19T22:37:26.504Z,3.42
2023-12-19T22:39:55.764Z,4.03
2023-12-19T22:42:25.090Z,4.90
2023-12-19T22:44:54.735Z,3.78
2023-12-19T22:47:24.136Z,4.88
2023-12-19T22:49:53.304Z,6.22
2023-12-19T22:52:22.725Z,5.13
2023-12-19T22:54:52.000Z,4.82
2023-12-19T22:57:21.293Z,4.60
2023-12-19T22:59:50.570Z,4.20
2023-12-19T23:02:19.996Z,4.72
2023-12-19T23:04:50.879Z,6.97
2023-12-19T23:07:20.333Z,8.05
2023-12-19T23:09:49.740Z,8.70
2023-12-19T23:12:18.984Z,7.63
2023-12-19T23:14:49.347Z,3.90
2023-12-19T23:17:18.886Z,4.05
2023-12-19T23:19:48.320Z,6.00
2023-12-19T23:22:17.860Z,8.00
2023-12-19T23:24:47.215Z,9.90
2023-12-19T23:27:16.403Z,9.15
2023-12-19T23:29:45.588Z,6.85
2023-12-19T23:32:15.187Z,5.90
2023-12-19T23:34:44.474Z,4.88
2023-12-19T23:37:13.775Z,5.22
2023-12-19T23:39:43.182Z,5.03
2023-12-19T23:42:12.434Z,4.32
2023-12-19T23:44:41.743Z,4.68
2023-12-19T23:47:10.998Z,3.83
2023-12-19T23:49:43.656Z,3.00
2023-12-19T23:52:12.996Z,4.53
2023-12-19T23:54:42.368Z,4.53
2023-12-19T23:57:11.756Z,3.38
2023-12-19T23:59:41.010Z,4.30
